Rechercher aéroport 
image banner adimage banner adimage banner ad
image banner ad

CA53 - Tews Field

Situé à Redding, United States

ICAO - CA53, IATA -

Données fournies par Airmate  

Information générale

Coordonnées: N40°40'21" W122°20'30"
Élévation : 740 feet MSL.
Variation magnétique : 17° East
Voir autres Aéroports à California

Données opérationnelles

Special qualification required
Heure actuelle UTC:
Heure actuelle locale:
Météo à : KRDD - Redding Muni ( 19 km )
METAR: KRDD 251553Z 00000KT 8SM FU CLR 26/10 A2991 RMK AO2 SLP120 T02560100
TAF: KRDD 251120Z 2512/2612 VRB03KT P6SM SCT250 FM252200 18009KT P6SM SCT150 BKN250
Voir NOTAMs / SUP AIP / TFR affectant cet aéroport [VIEW]
Fréquences de communication: [VIEW]

Pistes:

Identifiant RWYQFULongueur (ft)Largeur (ft)SurfaceLDA (ft)
08180024ASPH
26180024ASPH

Coordonnées de l'aéroport

Adresse: Redding United States

Vue satellite de CA53